Time;durP1;ratioP1;P1;durP2;ratioP2;P2;SDS_P1;SDS_P2;PMS_P1;PMS_P2;Temp;Humidity;BMP_temperature;BMP_pressure;BME280_temperature;BME280_humidity;BME280_pressure;Samples;Min_cycle;Max_cycle;Signal;HPM_P1;HPM_P2
2021/09/16 00:01:05;;;;;;;20.10;18.20;;;;;;;19.49;61.74;100049.79;115936;1202;21922;-85
2021/09/16 00:03:35;;;;;;;19.40;17.50;;;;;;;19.48;61.86;100049.66;115555;1204;22335;-85
2021/09/16 00:06:09;;;;;;;19.30;17.20;;;;;;;19.47;61.92;100051.02;115464;1202;24272;-84
2021/09/16 00:08:38;;;;;;;19.10;16.90;;;;;;;19.46;62.02;100052.48;115498;1204;23566;-85
2021/09/16 00:11:11;;;;;;;18.30;16.60;;;;;;;19.44;62.09;100047.53;115657;1203;22031;-85
2021/09/16 00:13:41;;;;;;;20.20;18.30;;;;;;;19.43;62.15;100041.34;115481;1205;22638;-83
2021/09/16 00:16:12;;;;;;;22.00;18.60;;;;;;;19.42;62.21;100031.84;115838;1204;22061;-87
2021/09/16 00:19:16;;;;;;;20.80;18.80;;;;;;;19.42;62.36;100026.80;115911;1207;21937;-86
2021/09/16 00:22:08;;;;;;;20.50;18.40;;;;;;;19.43;62.52;100029.55;116166;1200;21898;-86
2021/09/16 00:24:41;;;;;;;22.30;18.80;;;;;;;19.44;62.50;100038.84;116272;1204;21914;-87
2021/09/16 00:27:35;;;;;;;20.40;18.30;;;;;;;19.45;62.49;100041.06;116021;1206;21894;-87
2021/09/16 00:30:28;;;;;;;22.60;19.50;;;;;;;19.45;62.50;100033.72;115938;1203;22608;-86
2021/09/16 00:32:59;;;;;;;21.20;19.10;;;;;;;19.43;62.27;100037.20;115758;1207;22055;-86
2021/09/16 00:35:34;;;;;;;19.80;17.90;;;;;;;19.41;62.52;100037.38;115620;1209;21964;-86
2021/09/16 00:38:04;;;;;;;;;;;;;;;19.39;62.63;100036.33;115795;1208;21920;-87
2021/09/16 00:40:43;;;;;;;19.90;18.00;;;;;;;19.30;62.71;100034.52;115577;1209;21997;-85
2021/09/16 00:43:20;;;;;;;20.40;18.40;;;;;;;19.27;63.00;100030.48;115290;1212;21966;-85
2021/09/16 00:45:49;;;;;;;20.60;18.80;;;;;;;19.27;63.05;100026.63;115259;1207;22653;-85
2021/09/16 00:48:19;;;;;;;21.40;19.20;;;;;;;19.26;63.21;100022.68;115355;1209;21886;-85
2021/09/16 00:50:49;;;;;;;21.90;18.80;;;;;;;19.23;63.45;100019.73;115412;1209;22718;-86
2021/09/16 00:53:19;;;;;;;21.70;19.60;;;;;;;19.22;63.50;100015.25;115429;1208;22058;-85
2021/09/16 00:55:51;;;;;;;22.70;20.40;;;;;;;19.18;63.56;100013.46;115333;1204;21924;-84
2021/09/16 00:58:28;;;;;;;22.10;19.90;;;;;;;19.16;63.75;100014.00;115658;1205;22292;-86
2021/09/16 01:01:19;;;;;;;23.00;20.60;;;;;;;19.11;63.98;100015.08;115290;1212;22538;-85
2021/09/16 01:03:53;;;;;;;22.60;20.40;;;;;;;19.09;64.01;100013.24;115039;1206;22838;-85
2021/09/16 01:06:27;;;;;;;21.80;19.70;;;;;;;19.08;64.19;100015.04;114987;1212;21879;-84
2021/09/16 01:08:57;;;;;;;23.50;21.00;;;;;;;19.07;64.40;100015.02;114916;1209;22016;-84
2021/09/16 01:11:27;;;;;;;22.70;20.30;;;;;;;19.07;64.38;100015.55;114908;1213;22652;-85
2021/09/16 01:14:09;;;;;;;20.00;18.20;;;;;;;19.07;64.41;100016.83;114617;1217;23596;-85
2021/09/16 01:16:40;;;;;;;22.40;19.70;;;;;;;19.08;64.44;100020.52;114694;1214;22082;-85
2021/09/16 01:19:09;;;;;;;23.10;20.40;;;;;;;19.11;64.39;100016.23;114673;1212;23598;-85
2021/09/16 01:21:39;;;;;;;24.50;20.40;;;;;;;19.14;64.45;100013.99;114758;1210;23618;-84
2021/09/16 01:24:17;;;;;;;22.70;20.70;;;;;;;19.17;64.46;100011.92;115092;1210;21935;-85
2021/09/16 01:26:47;;;;;;;23.80;21.30;;;;;;;19.21;64.51;100008.39;115429;1205;23659;-84
2021/09/16 01:29:18;;;;;;;21.80;19.60;;;;;;;19.25;64.51;100003.87;115460;1200;22247;-84
2021/09/16 01:31:50;;;;;;;23.20;20.60;;;;;;;19.28;64.44;100004.48;115926;1197;21909;-85
2021/09/16 01:34:20;;;;;;;25.80;21.00;;;;;;;19.32;64.50;100003.76;116330;1198;21937;-84
2021/09/16 01:36:49;;;;;;;22.40;20.20;;;;;;;19.31;64.31;100004.92;116239;1200;23488;-85
2021/09/16 01:39:21;;;;;;;31.90;20.90;;;;;;;19.30;64.40;100006.77;115905;1201;23593;-84
2021/09/16 01:41:52;;;;;;;24.80;21.60;;;;;;;19.30;64.41;100003.66;115927;1196;21910;-84
2021/09/16 01:44:21;;;;;;;22.50;20.10;;;;;;;19.29;64.40;100001.54;115693;1202;23464;-85
2021/09/16 01:46:51;;;;;;;22.70;20.00;;;;;;;19.25;64.50;99999.63;115816;1200;22198;-84
2021/09/16 01:49:20;;;;;;;21.20;19.10;;;;;;;19.20;64.63;100000.21;115714;1197;21979;-85
2021/09/16 01:51:50;;;;;;;22.00;19.90;;;;;;;19.16;64.69;99996.70;115547;1204;22969;-84
2021/09/16 01:54:21;;;;;;;22.00;19.70;;;;;;;19.14;64.89;99996.23;115634;1204;22889;-84
2021/09/16 01:56:51;;;;;;;21.20;19.10;;;;;;;19.16;65.07;99991.83;115633;1204;21989;-84
2021/09/16 01:59:22;;;;;;;23.30;21.00;;;;;;;19.17;64.89;99991.58;115954;1201;22942;-85
2021/09/16 02:01:51;;;;;;;22.50;20.20;;;;;;;19.15;65.01;99990.20;115933;1201;21888;-84
2021/09/16 02:04:22;;;;;;;22.00;19.90;;;;;;;19.13;65.16;99991.55;115613;1203;21904;-86
2021/09/16 02:06:52;;;;;;;23.30;20.90;;;;;;;19.10;65.16;99987.41;115594;1204;22981;-85
2021/09/16 02:09:21;;;;;;;24.50;22.00;;;;;;;19.08;65.23;99986.16;115635;1205;22003;-85
2021/09/16 02:11:51;;;;;;;26.10;22.80;;;;;;;19.05;65.38;99986.42;115536;1205;21886;-85
2021/09/16 02:14:24;;;;;;;24.00;21.40;;;;;;;19.02;65.37;99984.48;115862;1203;22413;-85
2021/09/16 02:16:53;;;;;;;22.70;20.40;;;;;;;18.99;65.58;99978.58;115896;1201;24151;-87
2021/09/16 02:19:32;;;;;;;23.60;21.20;;;;;;;18.97;65.79;99974.36;115776;1203;21923;-84
2021/09/16 02:22:04;;;;;;;22.60;20.50;;;;;;;18.96;65.78;99971.91;116112;1197;21990;-85
2021/09/16 02:24:35;;;;;;;22.70;20.40;;;;;;;18.95;65.98;99968.31;116142;1200;22728;-85
2021/09/16 02:27:07;;;;;;;24.30;21.80;;;;;;;18.93;65.98;99968.11;115811;1201;21910;-84
2021/09/16 02:29:38;;;;;;;22.70;20.40;;;;;;;18.92;66.00;99968.94;115979;1197;21933;-85
2021/09/16 02:32:08;;;;;;;24.70;22.30;;;;;;;18.92;66.02;99967.16;115728;1198;21915;-86
2021/09/16 02:34:38;;;;;;;24.30;21.80;;;;;;;18.91;66.13;99965.16;115672;1205;22639;-85
2021/09/16 02:37:08;;;;;;;23.40;21.00;;;;;;;18.92;66.33;99967.13;115769;1200;23565;-83
2021/09/16 02:39:45;;;;;;;23.10;20.80;;;;;;;18.93;66.26;99964.64;115413;1204;23468;-84
2021/09/16 02:42:15;;;;;;;24.10;21.60;;;;;;;18.95;66.30;99969.17;115666;1199;22632;-86
2021/09/16 02:44:45;;;;;;;23.90;21.50;;;;;;;18.96;66.27;99969.52;115682;1203;23300;-84
2021/09/16 02:47:16;;;;;;;23.80;21.40;;;;;;;18.98;66.45;99966.68;115682;1203;22682;-84
2021/09/16 02:49:46;;;;;;;24.40;21.80;;;;;;;19.00;66.33;99959.83;115694;1203;21884;-84
2021/09/16 02:52:16;;;;;;;23.40;21.20;;;;;;;19.00;66.24;99955.73;116004;1200;23882;-85
2021/09/16 02:54:47;;;;;;;26.20;21.30;;;;;;;18.96;66.21;99953.09;115684;1198;21956;-85
2021/09/16 02:57:19;;;;;;;24.40;22.10;;;;;;;18.95;66.34;99955.80;115335;1203;21955;-84
2021/09/16 02:59:52;;;;;;;24.40;21.90;;;;;;;18.96;66.39;99957.46;115389;1206;21904;-84
2021/09/16 03:02:22;;;;;;;23.70;21.30;;;;;;;18.96;66.55;99954.52;115356;1206;22006;-84
2021/09/16 03:04:51;;;;;;;25.60;23.20;;;;;;;18.98;66.55;99949.52;115188;1209;23658;-85
2021/09/16 03:07:21;;;;;;;24.80;22.40;;;;;;;18.95;66.55;99950.64;115392;1205;21947;-84
2021/09/16 03:09:50;;;;;;;26.00;22.70;;;;;;;18.92;66.51;99952.09;115426;1204;22923;-85
2021/09/16 03:12:23;;;;;;;24.90;20.90;;;;;;;18.89;66.63;99949.80;115262;1207;21891;-86
2021/09/16 03:14:54;;;;;;;24.40;22.00;;;;;;;18.85;66.70;99950.73;114936;1211;23342;-84
2021/09/16 03:17:24;;;;;;;26.10;23.50;;;;;;;18.80;66.87;99947.02;115091;1209;23624;-85
2021/09/16 03:19:56;;;;;;;25.10;22.60;;;;;;;18.77;67.18;99947.41;114969;1209;23498;-85
2021/09/16 03:22:26;;;;;;;31.60;24.80;;;;;;;18.75;67.28;99945.75;115189;1203;21997;-85
2021/09/16 03:24:55;;;;;;;25.00;22.80;;;;;;;18.74;67.24;99944.91;115265;1209;22926;-85
2021/09/16 03:27:25;;;;;;;24.90;22.50;;;;;;;18.73;67.31;99943.02;115293;1207;21928;-85
2021/09/16 03:29:54;;;;;;;26.80;23.90;;;;;;;18.71;67.40;99940.54;115004;1211;22417;-86
2021/09/16 03:32:26;;;;;;;25.30;22.90;;;;;;;18.67;67.50;99940.34;114864;1208;24435;-86
2021/09/16 03:34:56;;;;;;;26.10;23.60;;;;;;;18.65;67.74;99942.96;114975;1208;22783;-85
2021/09/16 03:37:25;;;;;;;25.20;22.70;;;;;;;18.63;67.90;99944.73;115317;1208;23678;-85
2021/09/16 03:39:57;;;;;;;27.40;24.60;;;;;;;18.61;67.97;99943.61;115496;1204;21892;-85
2021/09/16 03:42:27;;;;;;;27.40;24.70;;;;;;;18.60;68.09;99943.63;115436;1206;22179;-85
2021/09/16 03:44:58;;;;;;;25.60;23.20;;;;;;;18.59;68.31;99947.62;115372;1206;22581;-84
2021/09/16 03:47:27;;;;;;;28.00;24.40;;;;;;;18.59;68.39;99943.19;115391;1203;21940;-85
2021/09/16 03:49:58;;;;;;;26.80;24.00;;;;;;;18.60;68.51;99940.15;116136;1196;21959;-85
2021/09/16 03:52:27;;;;;;;27.40;24.80;;;;;;;18.62;68.58;99941.98;116556;1194;21912;-85
2021/09/16 03:54:56;;;;;;;25.20;22.80;;;;;;;18.63;68.58;99940.45;116469;1198;21897;-85
2021/09/16 03:57:26;;;;;;;27.00;24.30;;;;;;;18.63;68.61;99943.61;115880;1198;21922;-85
2021/09/16 03:59:56;;;;;;;25.60;23.30;;;;;;;18.62;68.47;99941.61;116020;1201;21909;-85
2021/09/16 04:02:25;;;;;;;26.70;23.70;;;;;;;18.60;68.59;99941.11;115980;1203;21921;-85
2021/09/16 04:04:55;;;;;;;26.50;23.90;;;;;;;18.59;68.74;99933.55;115860;1203;21916;-85
2021/09/16 04:07:27;;;;;;;25.60;23.00;;;;;;;18.60;68.98;99934.92;116066;1197;21923;-86
2021/09/16 04:09:58;;;;;;;24.50;22.20;;;;;;;18.63;68.88;99934.02;115482;1204;21917;-84
2021/09/16 04:12:28;;;;;;;27.90;25.00;;;;;;;18.63;68.91;99933.70;115406;1207;22495;-85
2021/09/16 04:14:58;;;;;;;27.50;24.90;;;;;;;18.63;68.89;99936.33;115469;1203;21930;-85
2021/09/16 04:17:30;;;;;;;26.30;23.30;;;;;;;18.61;69.00;99940.02;115409;1203;21942;-84
2021/09/16 04:20:03;;;;;;;27.90;25.00;;;;;;;18.59;69.08;99939.18;115351;1204;21913;-85
2021/09/16 04:22:38;;;;;;;28.40;25.60;;;;;;;18.61;69.20;99938.21;115221;1206;21985;-84
2021/09/16 04:25:16;;;;;;;26.20;23.70;;;;;;;18.61;69.20;99938.15;115149;1207;22360;-84
2021/09/16 04:27:49;;;;;;;25.60;23.10;;;;;;;18.60;69.25;99939.62;115181;1207;21921;-84
2021/09/16 04:30:22;;;;;;;28.30;25.70;;;;;;;18.60;69.35;99941.19;115025;1209;22158;-84
2021/09/16 04:32:58;;;;;;;26.70;24.00;;;;;;;18.61;69.31;99944.52;114662;1213;22680;-84
2021/09/16 04:35:28;;;;;;;28.40;25.70;;;;;;;18.62;69.39;99946.63;114518;1212;21935;-83
2021/09/16 04:37:58;;;;;;;26.00;23.50;;;;;;;18.64;69.39;99947.64;114690;1214;21987;-84
2021/09/16 04:40:31;;;;;;;27.90;25.30;;;;;;;18.67;69.53;99950.70;114659;1215;22416;-85
2021/09/16 04:43:00;;;;;;;30.00;26.60;;;;;;;18.69;69.46;99950.77;115041;1211;21918;-85
2021/09/16 04:45:30;;;;;;;28.80;25.80;;;;;;;18.70;69.50;99950.13;115122;1208;21907;-85
2021/09/16 04:48:03;;;;;;;28.20;25.30;;;;;;;18.70;69.47;99953.88;115004;1210;21946;-84
2021/09/16 04:50:32;;;;;;;29.60;26.60;;;;;;;18.70;69.51;99952.44;115308;1207;21938;-84
2021/09/16 04:53:02;;;;;;;33.40;26.20;;;;;;;18.71;69.49;99953.91;115243;1209;21926;-84
2021/09/16 04:55:32;;;;;;;31.30;28.10;;;;;;;18.70;69.53;99953.41;115379;1206;21924;-86
2021/09/16 04:58:02;;;;;;;29.70;26.60;;;;;;;18.71;69.62;99957.77;115426;1206;21910;-84
2021/09/16 05:00:38;;;;;;;30.40;26.90;;;;;;;18.72;69.75;99955.88;115568;1203;21943;-85
2021/09/16 05:03:08;;;;;;;29.30;26.30;;;;;;;18.74;69.85;99958.80;115600;1204;22606;-84
2021/09/16 05:05:41;;;;;;;29.30;26.60;;;;;;;18.75;69.85;99959.83;115538;1207;21932;-86
2021/09/16 05:08:24;;;;;;;31.10;27.80;;;;;;;18.77;69.73;99960.08;115454;1203;23496;-84
2021/09/16 05:10:57;;;;;;;31.80;28.50;;;;;;;18.80;69.83;99967.05;115463;1205;21898;-85
2021/09/16 05:13:27;;;;;;;30.00;27.10;;;;;;;18.78;69.76;99968.01;116207;1198;22236;-85
2021/09/16 05:15:56;;;;;;;29.30;25.40;;;;;;;18.78;69.87;99964.98;116192;1201;21908;-85
2021/09/16 05:18:31;;;;;;;30.10;26.30;;;;;;;18.81;69.97;99964.88;116406;1200;21897;-86
2021/09/16 05:21:05;;;;;;;28.70;25.50;;;;;;;18.87;70.08;99970.46;116495;1200;21923;-86
2021/09/16 05:23:39;;;;;;;28.20;25.50;;;;;;;18.92;70.09;99970.55;116667;1200;21877;-85
2021/09/16 05:26:09;;;;;;;28.70;25.70;;;;;;;18.96;70.18;99969.69;116618;1199;23581;-85
2021/09/16 05:28:43;;;;;;;28.50;25.80;;;;;;;19.02;70.17;99968.98;116141;1203;21855;-86
2021/09/16 05:31:14;;;;;;;32.40;25.40;;;;;;;19.08;70.06;99975.25;115873;1203;21898;-80
2021/09/16 05:33:43;;;;;;;26.70;24.20;;;;;;;19.14;69.98;99978.06;115620;1201;22628;-80
2021/09/16 05:36:12;;;;;;;27.70;24.90;;;;;;;19.20;69.90;99974.89;115223;1200;21900;-80
2021/09/16 05:38:41;;;;;;;28.80;23.90;;;;;;;19.25;69.74;99979.89;115156;1204;21911;-81
2021/09/16 05:41:10;;;;;;;27.80;24.30;;;;;;;19.29;69.84;99981.73;115021;1203;23038;-81
2021/09/16 05:43:39;;;;;;;27.40;23.70;;;;;;;19.34;70.04;99985.26;115223;1204;22926;-78
2021/09/16 05:46:09;;;;;;;24.30;21.80;;;;;;;19.39;69.81;99984.09;114772;1204;21913;-81
2021/09/16 05:48:38;;;;;;;25.20;22.70;;;;;;;19.44;69.94;99982.10;115128;1203;24094;-82
2021/09/16 05:51:07;;;;;;;22.30;20.00;;;;;;;19.51;69.73;99978.09;115066;1202;22377;-81
2021/09/16 05:53:37;;;;;;;22.40;20.40;;;;;;;19.59;69.61;99973.38;115018;1203;23704;-80
2021/09/16 05:56:06;;;;;;;24.30;21.40;;;;;;;19.66;69.54;99974.40;115100;1203;23464;-82
2021/09/16 05:58:36;;;;;;;25.10;21.80;;;;;;;19.74;69.41;99975.86;114836;1202;23511;-80
2021/09/16 06:01:05;;;;;;;22.50;19.30;;;;;;;19.79;69.24;99978.48;114998;1203;21857;-79
2021/09/16 06:03:35;;;;;;;20.20;18.30;;;;;;;19.83;68.99;99975.77;115224;1200;21896;-80
2021/09/16 06:06:04;;;;;;;19.10;17.10;;;;;;;19.87;68.96;99977.02;115684;1198;21895;-81
2021/09/16 06:08:33;;;;;;;19.80;17.80;;;;;;;19.93;68.89;99979.34;115674;1194;23900;-80
2021/09/16 06:11:03;;;;;;;18.10;16.30;;;;;;;19.99;68.65;99976.18;115767;1198;21972;-80
2021/09/16 06:13:34;;;;;;;17.60;16.10;;;;;;;20.03;68.45;99975.51;115641;1194;22620;-80
2021/09/16 06:16:05;;;;;;;19.30;17.30;;;;;;;20.07;68.51;99980.90;115773;1196;22093;-80
2021/09/16 06:18:40;;;;;;;19.40;16.90;;;;;;;20.11;68.36;99979.73;115714;1198;22196;-80
2021/09/16 06:21:09;;;;;;;19.90;16.50;;;;;;;20.16;68.30;99978.55;115984;1196;23559;-80
2021/09/16 06:23:38;;;;;;;21.20;15.40;;;;;;;20.20;68.21;99973.59;115686;1200;23581;-79
2021/09/16 06:26:09;;;;;;;20.70;17.50;;;;;;;20.24;68.03;99975.74;115931;1197;21903;-80
2021/09/16 06:28:39;;;;;;;17.40;15.80;;;;;;;20.28;68.00;99979.88;115654;1201;22923;-80
2021/09/16 06:31:08;;;;;;;18.30;15.20;;;;;;;20.32;67.96;99983.08;115740;1199;22649;-80
2021/09/16 06:33:37;;;;;;;18.40;16.60;;;;;;;20.37;67.83;99984.78;116003;1196;23467;-80
2021/09/16 06:36:09;;;;;;;21.80;16.50;;;;;;;20.42;67.80;99984.71;115750;1197;21894;-80
2021/09/16 06:38:38;;;;;;;17.00;15.30;;;;;;;20.48;67.75;99986.19;115706;1198;21927;-80
2021/09/16 06:41:07;;;;;;;17.60;14.80;;;;;;;20.54;67.71;99991.92;115685;1198;21919;-79
2021/09/16 06:43:36;;;;;;;21.80;15.80;;;;;;;20.64;67.64;99998.31;115952;1197;23561;-80
2021/09/16 06:46:06;;;;;;;20.10;16.00;;;;;;;20.72;67.36;99992.98;115804;1198;22129;-80
2021/09/16 06:48:35;;;;;;;18.90;15.40;;;;;;;20.79;67.15;99994.16;115911;1197;22565;-79
2021/09/16 06:51:04;;;;;;;19.60;17.00;;;;;;;20.86;67.06;99999.39;115703;1197;22876;-79
2021/09/16 06:53:51;;;;;;;18.70;13.90;;;;;;;20.94;66.77;99999.94;115716;1198;22876;-83
2021/09/16 06:56:20;;;;;;;15.40;14.10;;;;;;;21.02;66.68;100006.89;115805;1195;21911;-79
2021/09/16 06:58:50;;;;;;;15.80;14.40;;;;;;;21.09;66.67;100007.74;115828;1197;24184;-80
2021/09/16 07:01:19;;;;;;;20.60;14.30;;;;;;;21.18;66.47;100007.02;115697;1198;23564;-81
2021/09/16 07:03:51;;;;;;;16.80;13.30;;;;;;;21.27;66.32;100005.85;115644;1200;24250;-82
2021/09/16 07:06:37;;;;;;;19.20;14.50;;;;;;;21.35;66.11;100008.05;115609;1199;21920;-83
2021/09/16 07:09:07;;;;;;;16.90;13.30;;;;;;;21.45;65.91;100009.21;115542;1201;22911;-83
2021/09/16 07:11:39;;;;;;;14.90;13.50;;;;;;;21.52;65.71;100008.77;115502;1201;22648;-83
2021/09/16 07:14:08;;;;;;;16.20;14.50;;;;;;;21.59;65.78;100009.98;115719;1200;22944;-83
2021/09/16 07:16:38;;;;;;;19.20;14.90;;;;;;;21.66;65.58;100012.83;115473;1201;22006;-84
2021/09/16 07:19:10;;;;;;;62.80;29.80;;;;;;;21.72;65.45;100012.80;115721;1200;21889;-82
2021/09/16 07:21:40;;;;;;;34.40;19.00;;;;;;;21.77;65.23;100015.86;115502;1202;21891;-84
2021/09/16 07:24:10;;;;;;;24.90;14.00;;;;;;;21.82;65.32;100019.38;115410;1201;22946;-83
2021/09/16 07:26:46;;;;;;;17.80;13.80;;;;;;;21.86;65.27;100017.20;115338;1205;21960;-83
2021/09/16 07:29:20;;;;;;;22.50;13.20;;;;;;;21.92;65.07;100021.16;114808;1206;21946;-83
2021/09/16 07:31:54;;;;;;;17.70;12.70;;;;;;;21.91;65.00;100018.77;114732;1203;22923;-83
2021/09/16 07:34:24;;;;;;;19.30;13.90;;;;;;;21.92;65.11;100019.21;114915;1208;22751;-83
2021/09/16 07:36:55;;;;;;;15.50;13.40;;;;;;;21.93;65.08;100022.79;114769;1209;24814;-83
2021/09/16 07:39:24;;;;;;;14.80;11.70;;;;;;;21.93;65.22;100023.80;114898;1206;23506;-84
2021/09/16 07:41:59;;;;;;;22.90;12.80;;;;;;;21.95;65.25;100026.31;114822;1207;24201;-82
2021/09/16 07:44:34;;;;;;;14.70;13.00;;;;;;;21.97;65.19;100025.96;114950;1204;21946;-84
2021/09/16 07:47:25;;;;;;;16.50;13.20;;;;;;;21.98;65.34;100026.34;115279;1205;22928;-86
2021/09/16 07:50:06;;;;;;;16.60;12.10;;;;;;;22.01;65.36;100020.52;115636;1201;21957;-87
2021/09/16 07:53:20;;;;;;;15.50;13.30;;;;;;;22.06;65.34;100023.69;117218;1194;22254;-83
2021/09/16 07:59:19;;;;;;;15.20;12.30;;;;;;;22.15;65.16;100022.69;117078;1196;21924;-86
2021/09/16 08:02:10;;;;;;;17.20;12.20;;;;;;;22.17;65.01;100026.48;116253;1200;23462;-79
2021/09/16 08:04:40;;;;;;;15.50;12.00;;;;;;;22.20;65.09;100025.48;115810;1199;21920;-80
2021/09/16 08:07:09;;;;;;;12.80;11.20;;;;;;;22.26;65.25;100028.67;115640;1201;21910;-83
2021/09/16 08:09:39;;;;;;;13.70;11.60;;;;;;;22.33;65.41;100032.04;115824;1201;23073;-82
2021/09/16 08:12:15;;;;;;;19.70;12.00;;;;;;;22.39;65.24;100032.43;115524;1201;21914;-82
2021/09/16 08:14:53;;;;;;;15.70;11.70;;;;;;;22.43;65.04;100036.07;115360;1202;21906;-83
2021/09/16 08:17:22;;;;;;;13.80;10.30;;;;;;;22.45;64.69;100038.14;115397;1202;22845;-79
2021/09/16 08:19:56;;;;;;;79.60;17.40;;;;;;;22.47;64.79;100037.56;115437;1203;23086;-84
2021/09/16 08:22:36;;;;;;;12.90;11.20;;;;;;;22.46;64.84;100037.30;116044;1198;22001;-84
2021/09/16 08:25:09;;;;;;;16.80;12.70;;;;;;;22.46;64.83;100036.86;115339;1206;23030;-80
2021/09/16 08:27:48;;;;;;;13.90;11.60;;;;;;;22.45;64.92;100039.86;115251;1205;21923;-83
2021/09/16 08:30:21;;;;;;;12.40;11.30;;;;;;;22.46;64.99;100038.20;115410;1205;21907;-85
2021/09/16 08:32:51;;;;;;;14.70;12.20;;;;;;;22.52;65.13;100038.73;115311;1204;23509;-85
2021/09/16 08:35:21;;;;;;;13.90;12.50;;;;;;;22.59;65.20;100040.54;115380;1202;22929;-85
2021/09/16 08:37:56;;;;;;;18.30;13.10;;;;;;;22.66;65.17;100044.38;115247;1205;21860;-84
2021/09/16 08:40:28;;;;;;;16.10;14.50;;;;;;;22.73;64.86;100051.97;115145;1208;23692;-84
2021/09/16 08:43:04;;;;;;;14.50;13.00;;;;;;;22.78;64.65;100051.55;115084;1206;21909;-84
2021/09/16 08:45:34;;;;;;;14.70;13.30;;;;;;;22.84;64.50;100055.30;115316;1203;22359;-84
2021/09/16 08:48:09;;;;;;;15.70;14.30;;;;;;;22.90;64.31;100050.55;115355;1205;24284;-82
2021/09/16 08:50:38;;;;;;;15.90;14.30;;;;;;;22.94;64.12;100050.41;115028;1204;21938;-79
2021/09/16 08:53:32;;;;;;;16.70;15.10;;;;;;;22.95;63.84;100051.72;116568;1199;21907;-84
2021/09/16 08:56:18;;;;;;;15.60;13.90;;;;;;;22.92;63.66;100054.42;115537;1201;23493;-83
2021/09/16 08:58:52;;;;;;;16.50;13.90;;;;;;;22.89;63.58;100054.60;115554;1200;21928;-84
2021/09/16 09:01:22;;;;;;;15.10;13.80;;;;;;;22.84;63.53;100056.16;115111;1206;23725;-84
2021/09/16 09:03:52;;;;;;;16.60;15.10;;;;;;;22.78;63.65;100060.05;115136;1203;21863;-85
2021/09/16 09:06:37;;;;;;;18.30;16.40;;;;;;;22.71;63.94;100059.88;114918;1207;22021;-85
2021/09/16 09:09:23;;;;;;;18.80;17.00;;;;;;;22.66;64.23;100060.31;114706;1212;22233;-85
2021/09/16 09:12:09;;;;;;;19.60;18.00;;;;;;;22.60;64.46;100060.90;114697;1212;22961;-80
2021/09/16 09:14:52;;;;;;;17.90;16.60;;;;;;;22.58;65.08;100062.11;114844;1204;22879;-79
2021/09/16 09:17:31;;;;;;;17.00;15.40;;;;;;;22.59;65.30;100062.45;114778;1210;21943;-80
2021/09/16 09:20:11;;;;;;;17.40;15.90;;;;;;;22.61;65.54;100063.94;114768;1209;21927;-79
2021/09/16 09:22:43;;;;;;;17.00;15.50;;;;;;;22.63;65.50;100062.70;114915;1206;21930;-80
2021/09/16 09:25:14;;;;;;;14.70;13.50;;;;;;;22.63;65.48;100064.70;114701;1208;23003;-80
2021/09/16 09:27:55;;;;;;;15.10;13.90;;;;;;;22.64;65.52;100064.11;115071;1208;23554;-80
2021/09/16 09:30:31;;;;;;;13.90;12.50;;;;;;;22.64;65.74;100061.85;114970;1206;22225;-81
2021/09/16 09:33:09;;;;;;;15.40;12.60;;;;;;;22.67;65.90;100060.97;115006;1205;23607;-81
2021/09/16 09:35:44;;;;;;;13.20;11.80;;;;;;;22.69;65.85;100061.10;115877;1197;21920;-86
2021/09/16 09:38:40;;;;;;;12.80;11.70;;;;;;;22.72;65.61;100064.18;116156;1202;21923;-90
2021/09/16 09:42:24;;;;;;;13.30;12.00;;;;;;;22.65;65.42;100064.81;116409;1196;21960;-86
2021/09/16 09:45:08;;;;;;;12.20;11.00;;;;;;;22.56;65.35;100068.51;115867;1197;21952;-79
2021/09/16 09:47:45;;;;;;;13.20;12.10;;;;;;;22.48;65.59;100076.50;115422;1203;22120;-83
2021/09/16 09:50:24;;;;;;;11.90;10.90;;;;;;;22.40;65.86;100073.77;115687;1203;21909;-85
2021/09/16 09:53:14;;;;;;;14.00;12.50;;;;;;;22.29;66.17;100073.06;115319;1203;23654;-79
2021/09/16 09:55:46;;;;;;;13.60;12.40;;;;;;;22.20;66.96;100072.90;115007;1204;22694;-80
2021/09/16 09:58:28;;;;;;;13.50;12.30;;;;;;;22.16;67.76;100072.79;115019;1206;23638;-79
2021/09/16 10:01:17;;;;;;;14.30;13.20;;;;;;;22.15;68.24;100073.09;114941;1204;21927;-80
2021/09/16 10:03:55;;;;;;;13.50;12.20;;;;;;;22.14;68.71;100069.86;115172;1204;21914;-77
2021/09/16 10:06:35;;;;;;;12.30;11.40;;;;;;;22.15;68.93;100071.80;115320;1206;22276;-79
2021/09/16 10:09:13;;;;;;;13.10;11.90;;;;;;;22.17;68.91;100072.10;115265;1203;23468;-78
2021/09/16 10:11:47;;;;;;;14.20;13.10;;;;;;;22.21;69.22;100077.59;115242;1200;21897;-80
2021/09/16 10:14:18;;;;;;;13.80;12.70;;;;;;;22.25;69.21;100080.16;115428;1202;23015;-79
2021/09/16 10:16:47;;;;;;;13.50;12.30;;;;;;;22.30;69.33;100079.95;115981;1197;21896;-79
2021/09/16 10:19:17;;;;;;;13.30;12.30;;;;;;;22.36;69.33;100085.79;115689;1198;21911;-79
2021/09/16 10:21:47;;;;;;;12.50;11.30;;;;;;;22.42;69.17;100084.67;115946;1199;22907;-80
2021/09/16 10:24:19;;;;;;;13.10;12.00;;;;;;;22.45;68.71;100087.23;115655;1201;23045;-79
2021/09/16 10:26:51;;;;;;;14.20;12.70;;;;;;;22.44;68.28;100086.95;115456;1201;22927;-80
2021/09/16 10:29:30;;;;;;;14.40;12.60;;;;;;;22.39;67.95;100088.94;115056;1206;21908;-81
2021/09/16 10:32:36;;;;;;;;;;;;;;;;;;;;;
2021/09/16 10:35:20;;;;;;;18.10;14.40;;;;;;;22.25;68.10;100095.45;115293;1203;21966;-80
2021/09/16 10:37:51;;;;;;;11.90;10.60;;;;;;;22.19;68.30;100094.94;115239;1203;21911;-82
2021/09/16 10:40:35;;;;;;;11.60;10.30;;;;;;;22.15;68.30;100095.32;115179;1204;22013;-82
2021/09/16 10:43:05;;;;;;;16.70;12.50;;;;;;;22.15;68.51;100094.46;115037;1202;21918;-82
2021/09/16 10:45:40;;;;;;;12.70;10.70;;;;;;;22.15;68.48;100093.55;115075;1204;22860;-83
2021/09/16 10:48:15;;;;;;;10.30;9.30;;;;;;;22.14;68.33;100096.01;115358;1200;21926;-82
2021/09/16 10:50:55;;;;;;;13.40;11.00;;;;;;;22.13;68.53;100097.86;115409;1203;21851;-83
2021/09/16 10:53:45;;;;;;;16.80;13.50;;;;;;;22.15;68.82;100096.45;115598;1200;23697;-81
2021/09/16 10:57:21;;;;;;;12.20;11.10;;;;;;;22.23;68.97;100085.75;116182;1192;544050;-83
2021/09/16 10:59:51;;;;;;;13.90;12.00;;;;;;;22.26;69.27;100087.73;117394;1188;23623;-83
2021/09/16 11:02:39;;;;;;;13.10;11.80;;;;;;;22.35;69.73;100085.77;117419;1174;22994;-83
2021/09/16 11:05:18;;;;;;;13.40;12.20;;;;;;;22.50;69.78;100085.88;117342;1188;22633;-83
2021/09/16 11:07:59;;;;;;;12.70;11.40;;;;;;;22.62;69.40;100082.56;117258;1187;22299;-84
2021/09/16 11:10:29;;;;;;;13.40;12.30;;;;;;;22.69;68.88;100085.17;117230;1187;22856;-83
2021/09/16 11:13:40;;;;;;;13.60;12.50;;;;;;;22.73;68.48;100086.60;117214;1190;23545;-83
2021/09/16 11:16:10;;;;;;;13.30;12.00;;;;;;;22.76;68.22;100087.98;116547;1194;23439;-83
2021/09/16 11:18:48;;;;;;;12.00;11.00;;;;;;;22.79;67.94;100080.95;116456;1196;21878;-85
2021/09/16 11:21:20;;;;;;;13.10;11.70;;;;;;;22.80;67.82;100077.52;116370;1196;22392;-84
2021/09/16 11:23:50;;;;;;;12.00;11.00;;;;;;;22.84;68.05;100075.55;116464;1196;21900;-83
2021/09/16 11:26:23;;;;;;;13.30;12.00;;;;;;;22.87;67.71;100066.76;116492;1196;21902;-82
2021/09/16 11:29:06;;;;;;;13.10;11.80;;;;;;;22.87;67.44;100064.45;116512;1193;23455;-82
2021/09/16 11:31:36;;;;;;;13.20;12.10;;;;;;;22.87;67.28;100066.02;116513;1193;21915;-82
2021/09/16 11:34:13;;;;;;;13.30;11.40;;;;;;;22.90;67.35;100064.20;116485;1196;24171;-82
2021/09/16 11:37:17;;;;;;;12.10;10.80;;;;;;;22.94;67.59;100062.36;116527;1196;21940;-83
2021/09/16 11:40:07;;;;;;;11.80;10.70;;;;;;;23.04;67.75;100057.88;116765;1193;21902;-81
2021/09/16 11:42:48;;;;;;;11.10;10.10;;;;;;;23.20;67.85;100056.65;116412;1194;23011;-81